Thursday, July 24, 2014
17:12 UTC
  |  Log In   |  Register Free
Airport Search:

Lincoln Airport
(KLNK)

Lincoln Airport Diagram
No Airport Diagram Available

FAA data valid effective July 24, 2014 until September 18, 2014 (unless otherwise noted).

 
 
 
 
 
 
 
 
 
 
 
 
 
 

Current Aviation Weather for Lincoln Airport (KLNK)

The most recent METAR observation for KLNK was updated at: 1554 UTC
METAR Summary (Translated METAR)
KLNK
241554Z 16012KT 10SM FEW120 27/16 A3013 RMK AO2 SLP192 T02670161
KBIE
(33 nm SE from KLNK)
241635Z AUTO 15012KT 10SM SCT120 26/18 A3011 RMK AO2 T02580177
TAF Summary (Translated TAF)
KLNK
241500Z 2415/2512 15017G20KT P6SM SCT100 FM250000 16015KT P6SM BKN250
  Airport Weather Conditions for KLNK

 Current Weather at LNK
80° F
A Few Clouds
South winds at 13.8 mph
LNK NOAA Radar

Pressure: 30.13 in
Humidity: 52%
Wind: South at 13.8 MPH (12 KT)
Dew Point: 61.0°F
Visibility: 10.00 mi


Airport Weather Forecast for KLNK

Translated METAR and TAF for KLNK
Translated METAR for KLNK (1705 UTC 24 July 2014)
found at http://aviationweather.gov/adds/metars/
 
METAR text: KLNK 241654Z 12016G20KT 10SM CLR 28/16 A3013 RMK AO2 SLP190 T02780161
Conditions at: KLNK (LINCOLN , NE, US) observed 1654 UTC 24 July 2014
Temperature: 27.8°C (82°F)
Dewpoint: 16.1°C (61°F) [RH = 49%]
Pressure (altimeter): 30.13 inches Hg (1020.4 mb)
[Sea-level pressure: 1019.0 mb]
Winds: from the ESE (120 degrees) at 18 MPH (16 knots; 8.3 m/s)
gusting to 23 MPH (20 knots; 10.4 m/s)
Visibility: 10 or more miles (16+ km)
Ceiling: at least 12,000 feet AGL
Clouds: sky clear below 12,000 feet AGL
Weather: no significant weather observed at this time
Translated TAF for KLNK
Forecast for: KLNK (LINCOLN , NE, US)
TAF Text: KLNK 241500Z 2415/2512 15017G20KT P6SM SCT100
Forecast period: 1500 UTC 24 July 2014 to 0000 UTC 25 July 2014
Forecast type: FROM: standard forecast or significant change
Winds: from the SSE (150 degrees) at 20 MPH (17 knots; 8.8 m/s)
gusting to 23 MPH (20 knots; 10.4 m/s)
Visibility: 6 or more miles (10+ km)
Clouds: scattered clouds at 10000 feet AGL
Weather: no significant weather forecast for this period
TAF Text: FM250000 16015KT P6SM BKN250
Forecast period: 0000 to 1200 UTC 25 July 2014
Forecast type: FROM: standard forecast or significant change
Winds: from the SSE (160 degrees) at 17 MPH (15 knots; 7.8 m/s)
Visibility: 6 or more miles (10+ km)
Ceiling: 25000 feet AGL
Clouds: broken clouds at 25000 feet AGL
Weather: no significant weather forecast for this period

Find All Airport Services Find A Hotel Find A Rental Car Find A Golf Course Find A Restaurant $100 Hamburger



FBO's on the Field
FBO Company Facility Photos Services Transportation Aviation Fuel Prices: Prices include tax
Catering Weather Repair Courtesy Rental Type 100LL JetA JetA+ MOGAS 8087
 
Duncan Aviation

This FBO has not yet been rated
FS:Avfuel
Last Updated: Jul-22
Login to update fuel prices
SS:
Contact Duncan AviationMore FBO Information
 
Silverhawk Aviation

This FBO has not yet been rated
FS:Phillips66
Last Updated: Jul-22
Login to update fuel prices
SS:
Contact Silverhawk AviationMore FBO Information
 
Add another FBO Facility Photos Catering Weather Repair Courtesy Rental Type 100LL JetA JetA+ MOGAS 8087
Services Transportation Aviation Fuel Prices: Prices include tax


GlobalAir.com Airport Resource Center model-print
model-print
model-print
model-print